createdAt,value
2017-03-26T00:00:47.587Z,734.64
2017-03-26T00:01:47.548Z,734.63
2017-03-26T00:02:47.535Z,734.66
2017-03-26T00:03:47.520Z,734.65
2017-03-26T00:04:47.506Z,734.63
2017-03-26T00:05:47.491Z,734.65
2017-03-26T00:06:47.477Z,734.64
2017-03-26T00:07:47.460Z,734.63
2017-03-26T00:08:47.447Z,734.6
2017-03-26T00:09:47.432Z,734.6
2017-03-26T00:10:47.417Z,734.61
2017-03-26T00:11:47.403Z,734.61
2017-03-26T00:12:47.388Z,734.62
2017-03-26T00:13:47.375Z,734.63
2017-03-26T00:14:47.360Z,734.63
2017-03-26T00:15:47.347Z,734.58
2017-03-26T00:16:47.330Z,734.56
2017-03-26T00:17:47.316Z,734.58
2017-03-26T00:18:47.302Z,734.56
2017-03-26T00:19:47.288Z,734.56
2017-03-26T00:20:47.274Z,734.51
2017-03-26T00:21:47.257Z,734.53
2017-03-26T00:22:47.245Z,734.53
2017-03-26T00:23:47.231Z,734.48
2017-03-26T00:24:47.215Z,734.5
2017-03-26T00:25:47.200Z,734.54
2017-03-26T00:26:47.186Z,734.48
2017-03-26T00:27:47.171Z,734.47
2017-03-26T00:28:47.157Z,734.47
2017-03-26T00:29:47.141Z,734.4
2017-03-26T00:30:47.125Z,734.44
2017-03-26T00:31:47.111Z,734.41
2017-03-26T00:32:47.094Z,734.41
2017-03-26T00:33:47.081Z,734.42
2017-03-26T00:34:47.067Z,734.4
2017-03-26T00:35:47.050Z,734.39
2017-03-26T00:36:47.035Z,734.37
2017-03-26T00:37:47.021Z,734.31
2017-03-26T00:38:47.007Z,734.37
2017-03-26T00:39:46.991Z,734.3
2017-03-26T00:40:46.975Z,734.3
2017-03-26T00:41:46.965Z,734.27
2017-03-26T00:42:46.946Z,734.27
2017-03-26T00:43:46.928Z,734.24
2017-03-26T00:44:46.914Z,734.24
2017-03-26T00:45:46.898Z,734.24
2017-03-26T00:46:46.884Z,734.16
2017-03-26T00:47:46.869Z,734.19
2017-03-26T00:48:46.853Z,734.18
2017-03-26T00:49:46.839Z,734.17
2017-03-26T00:50:46.824Z,734.18
2017-03-26T00:51:46.807Z,734.09
2017-03-26T00:52:46.793Z,734.08
2017-03-26T00:53:46.779Z,734.06
2017-03-26T00:54:46.762Z,734.05
2017-03-26T00:55:46.746Z,734.01
2017-03-26T00:56:46.731Z,733.99
2017-03-26T00:57:46.717Z,733.98
2017-03-26T00:58:46.701Z,734.01
2017-03-26T00:59:46.684Z,733.99
2017-03-26T01:00:46.670Z,734.01
2017-03-26T01:01:46.654Z,733.88
2017-03-26T01:02:46.638Z,733.88
2017-03-26T01:03:46.624Z,734.07
2017-03-26T01:04:46.608Z,734.02
2017-03-26T01:05:46.591Z,734.03
2017-03-26T01:06:46.575Z,733.97
2017-03-26T01:07:46.561Z,733.89
2017-03-26T01:08:46.546Z,733.96
2017-03-26T01:09:46.528Z,733.97
2017-03-26T01:10:46.513Z,734
2017-03-26T01:11:46.497Z,733.98
2017-03-26T01:12:46.480Z,733.95
2017-03-26T01:13:46.464Z,733.94
2017-03-26T01:14:46.450Z,733.97
2017-03-26T01:15:46.434Z,733.9
2017-03-26T01:16:46.418Z,733.88
2017-03-26T01:17:46.402Z,733.79
2017-03-26T01:18:46.388Z,733.86
2017-03-26T01:19:46.375Z,733.84
2017-03-26T01:20:46.355Z,733.92
2017-03-26T01:21:46.339Z,733.85
2017-03-26T01:22:46.323Z,733.85
2017-03-26T01:23:46.307Z,733.83
2017-03-26T01:24:46.291Z,733.88
2017-03-26T01:25:46.275Z,733.82
2017-03-26T01:26:46.260Z,733.82
2017-03-26T01:27:46.247Z,733.84
2017-03-26T01:28:46.227Z,733.85
2017-03-26T01:29:46.211Z,733.75
2017-03-26T01:30:46.196Z,733.79
2017-03-26T01:31:46.181Z,733.79
2017-03-26T01:32:46.166Z,733.75
2017-03-26T01:33:46.150Z,733.69
2017-03-26T01:34:46.134Z,733.7
2017-03-26T01:35:46.119Z,733.63
2017-03-26T01:36:46.101Z,733.65
2017-03-26T01:37:46.087Z,733.66
2017-03-26T01:38:46.072Z,733.66
2017-03-26T01:39:46.054Z,733.64
2017-03-26T01:40:46.039Z,733.63
2017-03-26T01:41:46.023Z,733.61
2017-03-26T01:42:46.008Z,733.6
2017-03-26T01:43:45.993Z,733.62
2017-03-26T01:44:45.976Z,733.54
2017-03-26T01:45:45.960Z,733.54
2017-03-26T01:46:45.946Z,733.46
2017-03-26T01:47:45.929Z,733.45
2017-03-26T01:48:45.915Z,733.54
2017-03-26T01:49:45.898Z,733.45
2017-03-26T01:50:45.885Z,733.48
2017-03-26T01:51:45.866Z,733.43
2017-03-26T01:52:45.851Z,733.37
2017-03-26T01:53:45.835Z,733.42
2017-03-26T01:54:45.817Z,733.35
2017-03-26T01:55:45.802Z,733.4
2017-03-26T01:56:45.786Z,733.38
2017-03-26T01:57:45.771Z,733.33
2017-03-26T01:58:45.755Z,733.29
2017-03-26T01:59:45.741Z,733.36
2017-03-26T02:00:45.723Z,733.33
2017-03-26T02:01:45.707Z,733.25
2017-03-26T02:02:45.692Z,733.28
2017-03-26T02:03:45.676Z,733.31
2017-03-26T02:04:45.659Z,733.39
2017-03-26T02:05:45.643Z,733.3
2017-03-26T02:06:45.627Z,733.32
2017-03-26T02:07:45.611Z,733.26
2017-03-26T02:08:45.596Z,733.27
2017-03-26T02:09:45.579Z,733.18
2017-03-26T02:10:45.563Z,733.23
2017-03-26T02:11:45.545Z,733.29
2017-03-26T02:12:45.531Z,733.27
2017-03-26T02:13:45.514Z,733.18
2017-03-26T02:14:45.499Z,733.26
2017-03-26T02:15:45.482Z,733.24
2017-03-26T02:16:45.472Z,733.2
2017-03-26T02:17:45.451Z,733.19
2017-03-26T02:18:45.434Z,733.23
2017-03-26T02:19:45.418Z,733.17
2017-03-26T02:20:45.403Z,733.18
2017-03-26T02:21:45.388Z,733.21
2017-03-26T02:22:45.371Z,733.2
2017-03-26T02:23:45.356Z,733.21
2017-03-26T02:24:45.341Z,733.23
2017-03-26T02:25:45.324Z,733.23
2017-03-26T02:26:45.310Z,733.23
2017-03-26T02:27:45.295Z,733.22
2017-03-26T02:28:45.278Z,733.18
2017-03-26T02:29:45.263Z,733.18
2017-03-26T02:30:45.245Z,733.17
2017-03-26T02:31:45.231Z,733.16
2017-03-26T02:32:45.215Z,733.14
2017-03-26T02:33:45.199Z,733.24
2017-03-26T02:34:45.183Z,733.21
2017-03-26T02:35:45.167Z,733.25
2017-03-26T02:36:45.150Z,733.22
2017-03-26T02:37:45.136Z,733.18
2017-03-26T02:38:45.121Z,733.17
2017-03-26T02:39:45.105Z,733.18
2017-03-26T02:40:45.089Z,733.21
2017-03-26T02:41:45.072Z,733.2
2017-03-26T02:42:45.057Z,733.19
2017-03-26T02:43:45.041Z,733.22
2017-03-26T02:44:45.024Z,733.17
2017-03-26T02:45:45.009Z,733.19
2017-03-26T02:46:44.994Z,733.21
2017-03-26T02:47:44.977Z,733.22
2017-03-26T02:48:44.963Z,733.27
2017-03-26T02:49:44.947Z,733.26
2017-03-26T02:50:44.932Z,733.26
2017-03-26T02:51:44.915Z,733.24
2017-03-26T02:52:44.901Z,733.23
2017-03-26T02:53:44.885Z,733.19
2017-03-26T02:54:44.869Z,733.15
2017-03-26T02:55:44.854Z,733.17
2017-03-26T02:56:44.838Z,733.21
2017-03-26T02:57:44.825Z,733.19
2017-03-26T02:58:44.808Z,733.19
2017-03-26T02:59:44.793Z,733.16
2017-03-26T03:00:44.777Z,733.15
2017-03-26T03:01:44.762Z,733.19
2017-03-26T03:02:44.747Z,733.17
2017-03-26T03:03:44.733Z,733.16
2017-03-26T03:04:44.717Z,733.15
2017-03-26T03:05:44.702Z,733.17
2017-03-26T03:06:44.685Z,733.14
2017-03-26T03:07:44.672Z,733.15
2017-03-26T03:08:44.657Z,733.12
2017-03-26T03:09:44.639Z,733.08
2017-03-26T03:10:44.624Z,733.13
2017-03-26T03:11:44.609Z,733.14
2017-03-26T03:12:44.595Z,733.07
2017-03-26T03:13:44.580Z,733.13
2017-03-26T03:14:44.565Z,733.1
2017-03-26T03:15:44.549Z,733.06
2017-03-26T03:16:44.534Z,733.02
2017-03-26T03:17:44.519Z,733.04
2017-03-26T03:18:44.503Z,733.02
2017-03-26T03:19:44.488Z,733.05
2017-03-26T03:20:44.472Z,733.06
2017-03-26T03:21:44.458Z,733.08
2017-03-26T03:22:44.441Z,733.07
2017-03-26T03:23:44.427Z,733.04
2017-03-26T03:24:44.410Z,733.07
2017-03-26T03:25:44.396Z,733.05
2017-03-26T03:26:44.381Z,733.09
2017-03-26T03:27:44.365Z,733.11
2017-03-26T03:28:44.350Z,733.11
2017-03-26T03:29:44.334Z,733.14
2017-03-26T03:30:44.320Z,733.12
2017-03-26T03:31:44.303Z,733.11
2017-03-26T03:32:44.287Z,733.1
2017-03-26T03:33:44.272Z,733.1
2017-03-26T03:34:44.258Z,733.15
2017-03-26T03:35:44.245Z,733.11
2017-03-26T03:36:44.225Z,733.12
2017-03-26T03:37:44.210Z,733.12
2017-03-26T03:38:44.196Z,733.09
2017-03-26T03:39:44.178Z,733.13
2017-03-26T03:40:44.164Z,733.09
2017-03-26T03:41:44.149Z,733.11
2017-03-26T03:42:44.131Z,733.04
2017-03-26T03:43:44.115Z,733.07
2017-03-26T03:44:44.101Z,733.06
2017-03-26T03:45:44.086Z,733.1
2017-03-26T03:46:44.069Z,733.13
2017-03-26T03:47:44.054Z,733.11
2017-03-26T03:48:44.241Z,733.15
2017-03-26T03:49:44.023Z,733.09
2017-03-26T03:50:44.009Z,733.11
2017-03-26T03:51:43.992Z,733.1
2017-03-26T03:52:43.977Z,733.12
2017-03-26T03:53:43.961Z,733.07
2017-03-26T03:54:43.947Z,733.14
2017-03-26T03:55:43.931Z,733.13
2017-03-26T03:56:43.914Z,733.14
2017-03-26T03:57:43.900Z,733.1
2017-03-26T03:58:43.885Z,733.11
2017-03-26T03:59:43.869Z,733.11
2017-03-26T04:00:43.853Z,733.12
2017-03-26T04:01:43.838Z,733.12
2017-03-26T04:02:43.824Z,733.1
2017-03-26T04:03:43.861Z,733.09
2017-03-26T04:04:43.792Z,733.08
2017-03-26T04:05:43.775Z,733.07
2017-03-26T04:06:43.761Z,733.06
2017-03-26T04:07:43.747Z,733.06
2017-03-26T04:08:43.729Z,733.07
2017-03-26T04:09:43.715Z,733.07
2017-03-26T04:10:43.698Z,733.09
2017-03-26T04:11:43.683Z,733.09
2017-03-26T04:12:43.667Z,733.09
2017-03-26T04:13:43.651Z,733.08
2017-03-26T04:14:43.635Z,733.05
2017-03-26T04:15:43.621Z,733.04
2017-03-26T04:16:43.604Z,733.05
2017-03-26T04:17:43.589Z,733.06
2017-03-26T04:18:43.574Z,733.03
2017-03-26T04:19:43.562Z,733.1
2017-03-26T04:20:43.542Z,733.07
2017-03-26T04:21:43.527Z,733.05
2017-03-26T04:22:43.510Z,733.05
2017-03-26T04:23:43.495Z,733.09
2017-03-26T04:24:43.480Z,733.05
2017-03-26T04:25:43.465Z,733.05
2017-03-26T04:26:43.449Z,733.07
2017-03-26T04:27:43.433Z,733.04
2017-03-26T04:28:43.418Z,733.03
2017-03-26T04:29:43.404Z,733.03
2017-03-26T04:30:43.387Z,733.02
2017-03-26T04:31:43.371Z,733
2017-03-26T04:32:43.356Z,733
2017-03-26T04:33:43.340Z,733.01
2017-03-26T04:34:43.326Z,732.98
2017-03-26T04:35:43.311Z,732.94
2017-03-26T04:36:43.296Z,732.96
2017-03-26T04:37:43.279Z,732.95
2017-03-26T04:38:43.263Z,732.94
2017-03-26T04:39:43.247Z,732.97
2017-03-26T04:40:43.233Z,732.97
2017-03-26T04:41:43.216Z,732.95
2017-03-26T04:42:43.202Z,732.95
2017-03-26T04:43:43.186Z,732.92
2017-03-26T04:44:43.171Z,732.95
2017-03-26T04:45:43.155Z,732.96
2017-03-26T04:46:43.141Z,732.95
2017-03-26T04:47:43.126Z,732.99
2017-03-26T04:48:43.110Z,733.02
2017-03-26T04:49:43.094Z,732.99
2017-03-26T04:50:43.078Z,733.03
2017-03-26T04:51:43.063Z,733.01
2017-03-26T04:52:43.048Z,732.99
2017-03-26T04:53:43.034Z,732.98
2017-03-26T04:54:43.018Z,733.02
2017-03-26T04:55:43.002Z,733
2017-03-26T04:56:42.998Z,733
2017-03-26T04:57:42.974Z,733.01
2017-03-26T04:58:42.958Z,733.02
2017-03-26T04:59:42.941Z,733.02
2017-03-26T05:00:42.926Z,732.99
2017-03-26T05:01:42.911Z,733
2017-03-26T05:02:42.897Z,732.95
2017-03-26T05:03:42.885Z,732.96
2017-03-26T05:04:42.866Z,732.97
2017-03-26T05:05:42.849Z,732.97
2017-03-26T05:06:42.834Z,732.99
2017-03-26T05:07:42.825Z,732.94
2017-03-26T05:08:42.806Z,732.95
2017-03-26T05:09:42.791Z,732.92
2017-03-26T05:10:42.774Z,733.02
2017-03-26T05:11:42.759Z,733.01
2017-03-26T05:12:42.745Z,733
2017-03-26T05:13:42.731Z,732.99
2017-03-26T05:14:42.714Z,732.96
2017-03-26T05:15:42.699Z,732.96
2017-03-26T05:16:42.684Z,732.95
2017-03-26T05:17:42.669Z,732.99
2017-03-26T05:18:42.654Z,733.02
2017-03-26T05:19:42.638Z,732.98
2017-03-26T05:20:42.624Z,733.05
2017-03-26T05:21:42.608Z,733.02
2017-03-26T05:22:42.594Z,733
2017-03-26T05:23:42.579Z,733
2017-03-26T05:24:42.565Z,733.04
2017-03-26T05:25:42.549Z,733.08
2017-03-26T05:26:42.534Z,733.05
2017-03-26T05:27:42.521Z,733.06
2017-03-26T05:28:42.505Z,733.02
2017-03-26T05:29:42.492Z,732.97
2017-03-26T05:30:42.477Z,733.03
2017-03-26T05:31:42.462Z,733.01
2017-03-26T05:32:42.448Z,733.01
2017-03-26T05:33:42.433Z,733.07
2017-03-26T05:34:42.418Z,733.09
2017-03-26T05:35:42.404Z,733.08
2017-03-26T05:36:42.390Z,733.06
2017-03-26T05:37:42.377Z,733.09
2017-03-26T05:38:42.367Z,733.08
2017-03-26T05:39:42.346Z,733.1
2017-03-26T05:40:42.334Z,733.14
2017-03-26T05:41:42.319Z,733.12
2017-03-26T05:42:42.304Z,733.1
2017-03-26T05:43:42.290Z,733.1
2017-03-26T05:44:42.275Z,733.08
2017-03-26T05:45:42.262Z,733.04
2017-03-26T05:46:42.246Z,733.07
2017-03-26T05:47:42.234Z,733.04
2017-03-26T05:48:42.220Z,733.05
2017-03-26T05:49:42.207Z,733.03
2017-03-26T05:50:42.191Z,733.03
2017-03-26T05:51:42.178Z,733.07
2017-03-26T05:52:42.163Z,733.06
2017-03-26T05:53:42.151Z,733.08
2017-03-26T05:54:42.136Z,733.1
2017-03-26T05:55:42.122Z,733.07
2017-03-26T05:56:42.110Z,733.09
2017-03-26T05:57:42.095Z,733.08
2017-03-26T05:58:42.083Z,733.11
2017-03-26T05:59:42.068Z,733.09
2017-03-26T06:00:42.055Z,733.1
2017-03-26T06:01:42.040Z,733.12
2017-03-26T06:02:42.036Z,733.11
2017-03-26T06:03:42.016Z,733.13
2017-03-26T06:04:42.003Z,733.12
2017-03-26T06:05:41.989Z,733.16
2017-03-26T06:06:41.976Z,733.12
2017-03-26T06:07:41.963Z,733.11
2017-03-26T06:08:41.952Z,733.17
2017-03-26T06:09:41.939Z,733.12
2017-03-26T06:10:41.926Z,733.11
2017-03-26T06:11:41.918Z,733.11
2017-03-26T06:12:41.901Z,733.11
2017-03-26T06:13:41.889Z,733.1
2017-03-26T06:14:41.876Z,733.11
2017-03-26T06:15:41.862Z,733.08
2017-03-26T06:16:41.850Z,733.14
2017-03-26T06:17:41.838Z,733.09
2017-03-26T06:18:41.825Z,733.16
2017-03-26T06:19:41.811Z,733.19
2017-03-26T06:20:41.801Z,733.23
2017-03-26T06:21:41.788Z,733.21
2017-03-26T06:22:41.777Z,733.18
2017-03-26T06:23:41.762Z,733.22
2017-03-26T06:24:41.751Z,733.22
2017-03-26T06:25:41.738Z,733.25
2017-03-26T06:26:41.732Z,733.29
2017-03-26T06:27:41.713Z,733.26
2017-03-26T06:28:41.699Z,733.29
2017-03-26T06:29:41.688Z,733.25
2017-03-26T06:30:41.674Z,733.24
2017-03-26T06:31:41.662Z,733.25
2017-03-26T06:32:41.652Z,733.25
2017-03-26T06:33:41.639Z,733.32
2017-03-26T06:34:41.627Z,733.32
2017-03-26T06:35:41.613Z,733.29
2017-03-26T06:36:41.602Z,733.32
2017-03-26T06:37:41.591Z,733.27
2017-03-26T06:38:41.577Z,733.35
2017-03-26T06:39:41.566Z,733.4
2017-03-26T06:40:41.553Z,733.34
2017-03-26T06:41:41.542Z,733.4
2017-03-26T06:42:41.531Z,733.25
2017-03-26T06:43:41.519Z,733.29
2017-03-26T06:44:41.508Z,733.27
2017-03-26T06:45:41.494Z,733.29
2017-03-26T06:46:41.484Z,733.3
2017-03-26T06:47:41.470Z,733.36
2017-03-26T06:48:41.460Z,733.4
2017-03-26T06:49:41.446Z,733.31
2017-03-26T06:50:41.434Z,733.28
2017-03-26T06:51:41.421Z,733.28
2017-03-26T06:52:41.409Z,733.24
2017-03-26T06:53:41.396Z,733.26
2017-03-26T06:54:41.386Z,733.28
2017-03-26T06:55:41.370Z,733.28
2017-03-26T06:56:41.357Z,733.3
2017-03-26T06:57:41.345Z,733.28
2017-03-26T06:58:41.335Z,733.25
2017-03-26T06:59:41.320Z,733.29
2017-03-26T07:00:41.309Z,733.32
2017-03-26T07:01:41.296Z,733.24
2017-03-26T07:02:41.284Z,733.26
2017-03-26T07:03:41.271Z,733.29
2017-03-26T07:04:41.257Z,733.33
2017-03-26T07:05:41.245Z,733.35
2017-03-26T07:06:41.231Z,733.38
2017-03-26T07:07:41.220Z,733.37
2017-03-26T07:08:41.207Z,733.4
2017-03-26T07:09:41.193Z,733.43
2017-03-26T07:10:41.184Z,733.42
2017-03-26T07:11:41.168Z,733.51
2017-03-26T07:12:41.157Z,733.48
2017-03-26T07:13:41.146Z,733.59
2017-03-26T07:14:41.132Z,733.56
2017-03-26T07:15:41.119Z,733.58
2017-03-26T07:16:41.107Z,733.54
2017-03-26T07:17:41.096Z,733.49
2017-03-26T07:18:41.082Z,733.47
2017-03-26T07:19:41.068Z,733.45
2017-03-26T07:20:41.057Z,733.58
2017-03-26T07:21:41.043Z,733.57
2017-03-26T07:22:41.031Z,733.51
2017-03-26T07:23:41.020Z,733.54
2017-03-26T07:24:41.006Z,733.57
2017-03-26T07:25:40.994Z,733.42
2017-03-26T07:26:40.982Z,733.38
2017-03-26T07:27:40.969Z,733.46
2017-03-26T07:28:40.961Z,733.51
2017-03-26T07:29:40.944Z,733.61
2017-03-26T07:30:40.932Z,733.56
2017-03-26T07:31:40.919Z,733.54
2017-03-26T07:32:40.906Z,733.59
2017-03-26T07:33:40.893Z,733.58
2017-03-26T07:34:40.880Z,733.58
2017-03-26T07:35:40.868Z,733.65
2017-03-26T07:36:40.853Z,733.62
2017-03-26T07:37:40.842Z,733.62
2017-03-26T07:38:40.827Z,733.45
2017-03-26T07:39:40.816Z,733.49
2017-03-26T07:40:40.800Z,733.45
2017-03-26T07:41:40.788Z,733.58
2017-03-26T07:42:40.775Z,733.6
2017-03-26T07:43:40.762Z,733.57
2017-03-26T07:44:40.747Z,733.54
2017-03-26T07:45:40.732Z,733.51
2017-03-26T07:46:40.720Z,733.6
2017-03-26T07:47:40.705Z,733.63
2017-03-26T07:48:40.693Z,733.68
2017-03-26T07:49:40.679Z,733.68
2017-03-26T07:50:40.664Z,733.67
2017-03-26T07:51:40.651Z,733.61
2017-03-26T07:52:40.638Z,733.58
2017-03-26T07:53:40.623Z,733.5
2017-03-26T07:54:40.607Z,733.48
2017-03-26T07:55:40.594Z,733.58
2017-03-26T07:56:40.619Z,733.66
2017-03-26T07:57:40.566Z,733.65
2017-03-26T07:58:40.550Z,733.59
2017-03-26T07:59:40.534Z,733.6
2017-03-26T08:00:40.521Z,733.72
2017-03-26T08:01:40.507Z,733.81
2017-03-26T08:02:40.491Z,733.62
2017-03-26T08:03:40.476Z,733.62
2017-03-26T08:04:40.463Z,733.76
2017-03-26T08:05:40.447Z,733.67
2017-03-26T08:06:40.434Z,733.68
2017-03-26T08:07:40.419Z,733.56
2017-03-26T08:08:40.407Z,733.64
2017-03-26T08:09:40.391Z,733.57
2017-03-26T08:10:40.376Z,733.6
2017-03-26T08:11:40.363Z,733.7
2017-03-26T08:12:40.349Z,733.77
2017-03-26T08:13:40.336Z,733.78
2017-03-26T08:14:40.322Z,733.76
2017-03-26T08:15:40.308Z,733.74
2017-03-26T08:16:40.293Z,733.7
2017-03-26T08:17:40.282Z,733.69
2017-03-26T08:18:40.321Z,733.67
2017-03-26T08:19:40.255Z,733.71
2017-03-26T08:20:40.241Z,733.71
2017-03-26T08:21:40.229Z,733.71
2017-03-26T08:22:40.217Z,733.76
2017-03-26T08:23:40.205Z,733.71
2017-03-26T08:24:40.191Z,733.76
2017-03-26T08:25:40.178Z,733.77
2017-03-26T08:26:40.167Z,733.76
2017-03-26T08:27:40.154Z,733.72
2017-03-26T08:28:40.142Z,733.76
2017-03-26T08:29:40.129Z,733.79
2017-03-26T08:30:40.119Z,733.78
2017-03-26T08:31:40.106Z,733.76
2017-03-26T08:32:40.095Z,733.77
2017-03-26T08:33:40.085Z,733.79
2017-03-26T08:34:40.071Z,733.81
2017-03-26T08:35:40.059Z,733.83
2017-03-26T08:36:40.048Z,733.67
2017-03-26T08:37:40.036Z,733.81
2017-03-26T08:38:40.023Z,733.77
2017-03-26T08:39:40.012Z,733.77
2017-03-26T08:40:40.000Z,733.76
2017-03-26T08:41:39.990Z,733.8
2017-03-26T08:42:39.977Z,733.76
2017-03-26T08:43:39.965Z,733.73
2017-03-26T08:44:39.952Z,733.75
2017-03-26T08:45:39.942Z,733.74
2017-03-26T08:46:39.931Z,733.74
2017-03-26T08:47:39.955Z,733.7
2017-03-26T08:48:39.908Z,733.74
2017-03-26T08:49:39.895Z,733.71
2017-03-26T08:50:39.884Z,733.73
2017-03-26T08:51:39.873Z,733.79
2017-03-26T08:52:39.863Z,733.75
2017-03-26T08:53:39.851Z,733.81
2017-03-26T08:54:39.839Z,733.83
2017-03-26T08:55:39.831Z,733.8
2017-03-26T08:56:39.823Z,733.77
2017-03-26T08:57:39.806Z,733.77
2017-03-26T08:58:39.796Z,733.73
2017-03-26T08:59:39.786Z,733.74
2017-03-26T09:00:39.775Z,733.69
2017-03-26T09:01:39.763Z,733.73
2017-03-26T09:02:39.755Z,733.65
2017-03-26T09:03:39.743Z,733.69
2017-03-26T09:04:39.732Z,733.67
2017-03-26T09:05:39.720Z,733.73
2017-03-26T09:06:39.709Z,733.72
2017-03-26T09:07:39.697Z,733.74
2017-03-26T09:08:39.689Z,733.69
2017-03-26T09:09:39.676Z,733.74
2017-03-26T09:10:39.665Z,733.7
2017-03-26T09:11:39.653Z,733.69
2017-03-26T09:12:39.644Z,733.68
2017-03-26T09:13:39.631Z,733.7
2017-03-26T09:14:39.621Z,733.7
2017-03-26T09:15:39.608Z,733.69
2017-03-26T09:16:39.598Z,733.72
2017-03-26T09:17:39.588Z,733.72
2017-03-26T09:18:39.574Z,733.72
2017-03-26T09:19:39.564Z,733.76
2017-03-26T09:20:39.552Z,733.75
2017-03-26T09:21:39.543Z,733.73
2017-03-26T09:22:39.532Z,733.79
2017-03-26T09:23:39.522Z,733.75
2017-03-26T09:24:39.513Z,733.78
2017-03-26T09:25:39.503Z,733.76
2017-03-26T09:26:39.491Z,733.75
2017-03-26T09:27:39.528Z,733.77
2017-03-26T09:28:39.474Z,733.76
2017-03-26T09:29:39.463Z,733.76
2017-03-26T09:30:39.455Z,733.74
2017-03-26T09:31:39.446Z,733.76
2017-03-26T09:32:39.436Z,733.76
2017-03-26T09:33:39.428Z,733.77
2017-03-26T09:34:39.419Z,733.8
2017-03-26T09:35:39.410Z,733.73
2017-03-26T09:36:39.402Z,733.76
2017-03-26T09:37:39.393Z,733.74
2017-03-26T09:38:39.384Z,733.75
2017-03-26T09:39:39.377Z,733.72
2017-03-26T09:40:39.369Z,733.7
2017-03-26T09:41:39.360Z,733.7
2017-03-26T09:42:39.353Z,733.65
2017-03-26T09:43:39.345Z,733.7
2017-03-26T09:44:39.336Z,733.67
2017-03-26T09:45:39.329Z,733.72
2017-03-26T09:46:39.321Z,733.68
2017-03-26T09:47:39.314Z,733.72
2017-03-26T09:48:39.304Z,733.79
2017-03-26T09:49:39.295Z,733.69
2017-03-26T09:50:39.289Z,733.64
2017-03-26T09:51:39.279Z,733.63
2017-03-26T09:52:39.279Z,733.67
2017-03-26T09:53:39.264Z,733.65
2017-03-26T09:54:39.254Z,733.66
2017-03-26T09:55:39.243Z,733.74
2017-03-26T09:56:39.235Z,733.69
2017-03-26T09:57:39.225Z,733.74
2017-03-26T09:58:39.216Z,733.75
2017-03-26T09:59:39.206Z,733.73
2017-03-26T10:00:39.196Z,733.77
2017-03-26T10:01:39.187Z,733.84
2017-03-26T10:02:39.176Z,733.81
2017-03-26T10:03:39.166Z,733.86
2017-03-26T10:04:39.158Z,733.79
2017-03-26T10:05:39.147Z,733.78
2017-03-26T10:06:39.139Z,733.73
2017-03-26T10:07:39.127Z,733.74
2017-03-26T10:08:39.119Z,733.84
2017-03-26T10:09:39.109Z,733.74
2017-03-26T10:10:39.097Z,733.75
2017-03-26T10:11:39.089Z,733.71
2017-03-26T10:12:39.080Z,733.71
2017-03-26T10:13:39.070Z,733.65
2017-03-26T10:14:39.059Z,733.65
2017-03-26T10:15:39.050Z,733.8
2017-03-26T10:16:39.041Z,733.82
2017-03-26T10:17:39.030Z,733.75
2017-03-26T10:18:39.024Z,733.8
2017-03-26T10:19:39.009Z,733.81
2017-03-26T10:20:38.997Z,733.74
2017-03-26T10:21:38.987Z,733.73
2017-03-26T10:22:38.977Z,733.89
2017-03-26T10:23:38.970Z,733.79
2017-03-26T10:24:38.960Z,733.76
2017-03-26T10:25:38.942Z,733.74
2017-03-26T10:26:38.933Z,733.79
2017-03-26T10:27:38.921Z,733.73
2017-03-26T10:28:38.910Z,733.83
2017-03-26T10:29:38.900Z,733.71
2017-03-26T10:30:38.887Z,733.68
2017-03-26T10:31:38.876Z,733.84
2017-03-26T10:32:38.866Z,733.66
2017-03-26T10:33:38.855Z,733.84
2017-03-26T10:34:38.845Z,733.79
2017-03-26T10:35:38.833Z,733.81
2017-03-26T10:36:38.822Z,733.8
2017-03-26T10:37:38.813Z,733.85
2017-03-26T10:38:38.802Z,733.82
2017-03-26T10:39:38.790Z,733.73
2017-03-26T10:40:38.780Z,733.71
2017-03-26T10:41:38.770Z,733.8
2017-03-26T10:42:38.757Z,733.93
2017-03-26T10:43:38.748Z,733.88
2017-03-26T10:44:38.737Z,733.9
2017-03-26T10:45:38.725Z,733.9
2017-03-26T10:46:38.714Z,733.93
2017-03-26T10:47:38.705Z,733.86
2017-03-26T10:48:38.693Z,733.84
2017-03-26T10:49:38.684Z,733.86
2017-03-26T10:50:38.672Z,733.82
2017-03-26T10:51:38.662Z,733.88
2017-03-26T10:52:38.651Z,733.95
2017-03-26T10:53:38.641Z,733.99
2017-03-26T10:54:38.630Z,733.91
2017-03-26T10:55:38.620Z,733.96
2017-03-26T10:56:38.610Z,734
2017-03-26T10:57:38.601Z,733.95
2017-03-26T10:58:38.590Z,733.94
2017-03-26T10:59:38.581Z,733.93
2017-03-26T11:00:38.573Z,733.9
2017-03-26T11:01:38.561Z,734.01
2017-03-26T11:02:38.554Z,734.01
2017-03-26T11:03:38.543Z,733.89
2017-03-26T11:04:38.533Z,733.87
2017-03-26T11:05:38.522Z,733.92
2017-03-26T11:06:38.514Z,733.93
2017-03-26T11:07:38.505Z,733.85
2017-03-26T11:08:38.494Z,733.77
2017-03-26T11:09:38.484Z,733.86
2017-03-26T11:10:38.473Z,733.92
2017-03-26T11:11:38.464Z,733.78
2017-03-26T11:12:38.452Z,733.79
2017-03-26T11:13:38.442Z,733.89
2017-03-26T11:14:38.430Z,733.95
2017-03-26T11:15:38.418Z,733.94
2017-03-26T11:16:38.409Z,733.92
2017-03-26T11:17:38.400Z,733.88
2017-03-26T11:18:38.388Z,733.94
2017-03-26T11:19:38.377Z,733.89
2017-03-26T11:20:38.367Z,733.87
2017-03-26T11:21:38.356Z,733.96
2017-03-26T11:22:38.345Z,733.93
2017-03-26T11:23:38.335Z,733.9
2017-03-26T11:24:38.325Z,733.9
2017-03-26T11:25:38.316Z,733.91
2017-03-26T11:26:38.304Z,733.98
2017-03-26T11:27:38.294Z,733.99
2017-03-26T11:28:38.285Z,733.86
2017-03-26T11:29:38.276Z,733.81
2017-03-26T11:30:38.265Z,733.83
2017-03-26T11:31:38.256Z,733.86
2017-03-26T11:32:38.246Z,733.86
2017-03-26T11:33:38.237Z,733.92
2017-03-26T11:34:38.226Z,733.96
2017-03-26T11:35:38.216Z,733.96
2017-03-26T11:36:38.205Z,733.95
2017-03-26T11:37:38.195Z,734.01
2017-03-26T11:38:38.187Z,733.92
2017-03-26T11:39:38.175Z,734
2017-03-26T11:40:38.165Z,733.97
2017-03-26T11:41:38.156Z,733.99
2017-03-26T11:42:38.145Z,733.94
2017-03-26T11:43:38.136Z,734.01
2017-03-26T11:44:38.125Z,733.95
2017-03-26T11:45:38.115Z,733.95
2017-03-26T11:46:38.104Z,734.05
2017-03-26T11:47:38.095Z,734.04
2017-03-26T11:48:38.085Z,734.03
2017-03-26T11:49:38.073Z,733.97
2017-03-26T11:50:38.064Z,734.02
2017-03-26T11:51:38.053Z,734.07
2017-03-26T11:52:38.041Z,733.97
2017-03-26T11:53:38.032Z,733.98
2017-03-26T11:54:38.021Z,733.9
2017-03-26T11:55:38.012Z,733.91
2017-03-26T11:56:38.002Z,733.97
2017-03-26T11:57:37.991Z,733.96
2017-03-26T11:58:37.983Z,733.95
2017-03-26T11:59:37.969Z,733.97
2017-03-26T12:00:37.960Z,734.01
2017-03-26T12:01:37.950Z,734.06
2017-03-26T12:02:37.941Z,734
2017-03-26T12:03:37.932Z,733.94
2017-03-26T12:04:37.920Z,733.9
2017-03-26T12:05:37.909Z,733.93
2017-03-26T12:06:37.897Z,733.94
2017-03-26T12:07:37.885Z,733.89
2017-03-26T12:08:37.875Z,733.89
2017-03-26T12:09:37.863Z,733.97
2017-03-26T12:10:37.850Z,733.89
2017-03-26T12:11:37.840Z,733.92
2017-03-26T12:12:37.828Z,733.89
2017-03-26T12:13:37.815Z,733.86
2017-03-26T12:14:37.806Z,733.8
2017-03-26T12:15:37.794Z,733.83
2017-03-26T12:16:37.780Z,733.89
2017-03-26T12:17:37.768Z,733.95
2017-03-26T12:18:37.756Z,733.83
2017-03-26T12:19:37.743Z,733.88
2017-03-26T12:20:37.730Z,733.94
2017-03-26T12:21:37.723Z,733.84
2017-03-26T12:22:37.707Z,733.85
2017-03-26T12:23:37.694Z,733.92
2017-03-26T12:24:37.682Z,733.88
2017-03-26T12:25:37.668Z,733.91
2017-03-26T12:26:37.656Z,733.86
2017-03-26T12:27:37.644Z,733.81
2017-03-26T12:28:37.631Z,733.82
2017-03-26T12:29:37.616Z,733.85
2017-03-26T12:30:37.606Z,733.82
2017-03-26T12:31:37.592Z,733.8